HOURLY OBS INDEX

033

Central Coast - east

ALVA BEACH

Site: 033295
Alt: 7.5m
74km ESE of TOWNSVILLE


  Time     Wind        Temp  DP   Baro     Rain since   Rain past  Vis(m), Cloud(base in m), Weather
  local        km/h                         9am  last   hr   10m    
Mon 08:00  SSW 11/ 17  13.8  8.0  1022.5    0.0   0.0   0.0   0.0   ----- 
Mon 08:30  SSW 11/ 19  15.7  8.2  1022.8    0.0   0.0   0.0   0.0   ----- 
Mon 09:00    S 11/ 19  17.6  8.2  1022.9    0.0   0.0   0.0   0.0   ----- 
Mon 09:30    S 11/ 17  19.0  8.1  1022.8    0.0   0.0   0.0   0.0   ----- 
Mon 10:00   SE 13/ 19  20.4  9.0  1022.7    0.0   0.0   0.0   0.0   ----- 
Mon 10:30   SE 13/ 20  21.0  9.9  1022.6    0.0   0.0   0.0   0.0   ----- 
Mon 11:00   SE 15/ 26  20.9 10.1  1022.3    0.0   0.0   0.0   0.0   ----- 
Mon 11:30  ESE 17/ 26  21.3 10.8  1022.1    0.0   0.0   0.0   0.0   ----- 
Mon 12:00  ESE 15/ 26  21.4 10.9  1021.7    0.0   0.0   0.0   0.0   ----- 
Mon 12:30  ESE 19/ 30  22.4 13.2  1021.3    0.0   0.0   0.0   0.0   ----- 
Mon 13:00  ESE 19/ 30  22.3 13.1  1020.9    0.0   0.0   0.0   0.0   ----- 

AYR DPI RESEARCH STN

Site: 033002
Alt: 17.0m
71km SE of TOWNSVILLE


  Time     Wind        Temp  DP   Baro     Rain since   Rain past  Vis(m), Cloud(base in m), Weather
  local        km/h                         9am  last   hr   10m    
Mon 08:00    S  7/  9  11.7  7.0  ------    0.0   0.0   0.0   0.0   ----- 
Mon 08:30    S  9/ 13  14.2  6.8  ------    0.0   0.0   0.0   0.0   ----- 
Mon 09:00    S  9/ 17  16.7  5.0  ------    0.0   0.0   0.0   0.0   ----- 
Mon 09:30  SSE 13/ 19  18.2  3.3  ------    0.0   0.0   0.0   0.0   ----- 
Mon 10:00   SE 15/ 24  19.9  3.6  ------    0.0   0.0   0.0   0.0   ----- 
Mon 10:30   SE 19/ 28  20.8  6.7  ------    0.0   0.0   0.0   0.0   ----- 
Mon 11:00  ESE 15/ 20  21.4  7.3  ------    0.0   0.0   0.0   0.0   ----- 
Mon 11:30   SE 19/ 28  22.0  7.8  ------    0.0   0.0   0.0   0.0   ----- 
Mon 12:00  ESE 17/ 30  22.6  8.0  ------    0.0   0.0   0.0   0.0   ----- 
Mon 12:30    E 17/ 24  22.8  8.9  ------    0.0   0.0   0.0   0.0   ----- 
Mon 13:00    E 15/ 26  23.3  9.3  ------    0.0   0.0   0.0   0.0   ----- 

BOWEN AIRPORT AWS

Site: 033327
Alt: 5.9m
km of


  Time     Wind        Temp  DP   Baro     Rain since   Rain past  Vis(m), Cloud(base in m), Weather
  local        km/h                         9am  last   hr   10m    
Mon 08:00  SSE 19/ 24  16.7  4.1  1022.6    0.0   0.0   0.0   0.0   ----- 
Mon 08:30  SSE 22/ 30  17.9  3.0  1022.9    0.0   0.0   0.0   0.0   ----- 
Mon 09:00  SSE 22/ 30  19.1  5.2  1022.9    0.0   0.0   0.0   0.0   ----- 
Mon 09:30  SSE 24/ 30  19.8  6.2  1022.9    0.0   0.0   0.0   0.0   ----- 
Mon 10:00  SSE 22/ 32  20.8  6.7  1022.8    0.0   0.0   0.0   0.0   ----- 
Mon 10:30   SE 22/ 32  22.0  8.9  1022.5    0.0   0.0   0.0   0.0   ----- 
Mon 11:00   SE 24/ 30  21.3  8.9  1022.4    0.0   0.0   0.0   0.0   ----- 
Mon 11:30   SE 22/ 28  22.0  9.9  1022.0    0.0   0.0   0.0   0.0   ----- 
Mon 12:00   SE 24/ 30  22.7 10.5  1021.4    0.0   0.0   0.0   0.0   ----- 
Mon 12:30   SE 26/ 32  23.2 11.9  1021.2    0.0   0.0   0.0   0.0   ----- 
Mon 13:00   SE 26/ 33  23.0 12.0  1020.9    0.0   0.0   0.0   0.0   ----- 

HAMILTON ISLAND AIRPORT

Site: 033106
Alt: 58.7m
83km ESE of BOWEN


  Time     Wind        Temp  DP   Baro     Rain since   Rain past  Vis(m), Cloud(base in m), Weather
  local        km/h                         9am  last   hr   10m    
Mon 08:00  SSE 43/ 46  17.9 10.3  1022.6    0.0   0.0   0.0   0.0   10000 
Mon 08:30  SSE 37/ 45  18.0  9.9  1023.0    0.0   0.0   0.0   0.0   10000 
Mon 09:00  SSE 37/ 46  18.2 10.1  1023.0    0.0   0.0   0.0   0.0   10000 
Mon 09:30  SSE 35/ 43  18.3 10.2  1023.1    0.0   0.0   0.0   0.0   10000 
Mon 10:00  SSE 33/ 41  18.4 10.5  1023.1    0.0   0.0   0.0   0.0   10000 
Mon 10:30  SSE 32/ 43  18.6 10.2  1023.1    0.0   0.0   0.0   0.0   10000 
Mon 11:00  SSE 35/ 45  18.6 10.9  1022.9    0.0   0.0   0.0   0.0   10000|SC 900 
Mon 11:30  SSE 37/ 45  19.0 11.8  1022.6    0.0   0.0   0.0   0.0   10000|BR 960 
Mon 12:00  SSE 37/ 45  19.0 11.6  1022.2    0.0   0.0   0.0   0.0   10000 
Mon 12:30  SSE 37/ 45  19.0 12.5  1021.8    0.0   0.0   0.0   0.0   10000|SC 840 
Mon 13:00  SSE 41/ 46  19.7 13.9  1021.3    0.0   0.0   0.0   0.0   10000|SC 840 

HAY POINT

Site: 033317
Alt: 7.0m
20km SE of MACKAY


  Time     Wind        Temp  DP   Baro     Rain since   Rain past  Vis(m), Cloud(base in m), Weather
  local        km/h                         9am  last   hr   10m    
Mon 08:00    S 24/ 32 --------  ------   ----  ----  ----  ----   ----- 
Mon 08:30    S 26/ 33 --------  ------   ----  ----  ----  ----   ----- 
Mon 09:00    S 28/ 33 --------  ------   ----  ----  ----  ----   ----- 
Mon 09:30    S 26/ 32 --------  ------   ----  ----  ----  ----   ----- 
Mon 10:00    S 28/ 35 --------  ------   ----  ----  ----  ----   ----- 
Mon 10:30    S 26/ 33 --------  ------   ----  ----  ----  ----   ----- 
Mon 11:00  SSE 22/ 30 --------  ------   ----  ----  ----  ----   ----- 
Mon 11:30  SSE 28/ 33 --------  ------   ----  ----  ----  ----   ----- 
Mon 12:00  SSE 30/ 35 --------  ------   ----  ----  ----  ----   ----- 
Mon 12:30  SSE 32/ 37 --------  ------   ----  ----  ----  ----   ----- 
Mon 13:00  SSE 33/ 37 --------  ------   ----  ----  ----  ----   ----- 

MACKAY AERO

Site: 033045
Alt: 4.7m
3km S of MACKAY


  Time     Wind        Temp  DP   Baro     Rain since   Rain past  Vis(m), Cloud(base in m), Weather
  local        km/h                         9am  last   hr   10m    
Mon 08:00  WSW  9/  9  11.8  7.5  1023.6    0.0   0.0   0.0   0.0   10000 
Mon 08:30   SW  7/ 11  13.7  7.0  1023.8    0.0   0.0   0.0   0.0   10000 
Mon 09:00    S 13/ 17  16.1  7.1  1023.9    0.0   0.0   0.0   0.0   10000 
Mon 09:30    S 15/ 22  18.6  6.1  1023.8    0.0   0.0   0.0   0.0   10000 
Mon 10:00    S 19/ 24  19.6  5.6  1024.1    0.0   0.0   0.0   0.0   10000 
Mon 10:30    S 19/ 26  20.3  6.6  1023.8    0.0   0.0   0.0   0.0   10000 
Mon 11:00  SSE 20/ 26  20.8  8.8  1023.5    0.0   0.0   0.0   0.0   10000 
Mon 11:30  SSE 22/ 28  21.1 10.0  1023.0    0.0   0.0   0.0   0.0   10000 
Mon 12:00   SE 24/ 32  21.4 12.0  1022.9    0.0   0.0   0.0   0.0   10000|SC1380 
Mon 12:30   SE 28/ 35  22.0 12.8  1022.3    0.0   0.0   0.0   0.0   10000|SC1260 
Mon 13:00   SE 28/ 35  22.0 12.8  1021.9    0.0   0.0   0.0   0.0   10000 

MACKAY M.O

Site: 033119
Alt: 30.3m
5km NE of MACKAY


  Time     Wind        Temp  DP   Baro     Rain since   Rain past  Vis(m), Cloud(base in m), Weather
  local        km/h                         9am  last   hr   10m    
Mon 08:00   SW 15/ 19  12.0  6.9  1023.6    0.0   0.0   0.0   0.0   ----- 
Mon 08:30  SSW 13/ 19  14.1  6.2  1023.8    0.0   0.0   0.0   0.0   ----- 
Mon 09:00  SSW 15/ 24  15.6  6.1  1023.8    0.0   0.0   0.0   0.0   ----- 
Mon 09:30    S 17/ 24  17.4  8.0  1023.8    0.0   0.0   0.0   0.0   ----- 
Mon 10:00    S 17/ 26  18.7  7.8  1024.1    0.0   0.0   0.0   0.0   ----- 
Mon 10:30    S 17/ 24  19.4  8.1  1023.9    0.0   0.0   0.0   0.0   ----- 
Mon 11:00    S 19/ 26  19.6  9.5  1023.6    0.0   0.0   0.0   0.0   ----- 
Mon 11:30    S 20/ 30  20.0  9.9  1023.2    0.0   0.0   0.0   0.0   ----- 
Mon 12:00    S 19/ 30  20.9 11.8  1023.0    0.0   0.0   0.0   0.0   -----|SC1290 
Mon 12:30  SSE 22/ 35  20.5 11.7  1022.4    0.0   0.0   0.0   0.0   ----- 
Mon 13:00    S 22/ 33  20.4 12.1  1022.1    0.0   0.0   0.0   0.0   ----- 

PROSERPINE AIRPORT

Site: 033247
Alt: 19.7m
62km SSE of BOWEN


  Time     Wind        Temp  DP   Baro     Rain since   Rain past  Vis(m), Cloud(base in m), Weather
  local        km/h                         9am  last   hr   10m    
Mon 08:00  SSW  7/  9  10.6  7.3  1023.2    0.0   0.0   0.0   0.0   10000 
Mon 08:30  SSW  7/ 11  13.9  8.3  1023.5    0.0   0.0   0.0   0.0   10000 
Mon 09:00    S  9/ 13  16.2  7.2  1023.5    0.0   0.0   0.0   0.0   10000 
Mon 09:30    S 13/ 19  18.5  4.3  1023.6    0.0   0.0   0.0   0.0   10000 
Mon 10:00    S 15/ 20  19.6  3.3  1023.6    0.0   0.0   0.0   0.0   10000 
Mon 10:30  SSE 17/ 22  20.8  5.6  1023.2    0.0   0.0   0.0   0.0   10000 
Mon 11:00   SE 15/ 26  22.0 10.5  1022.9    0.0   0.0   0.0   0.0   10000 
Mon 11:30    E 20/ 28  22.1 11.8  1022.6    0.0   0.0   0.0   0.0   10000 
Mon 12:00    E 22/ 33  21.9 11.6  1022.2    0.0   0.0   0.0   0.0   10000|SC1080 
Mon 12:30    E 22/ 33  22.6 12.8  1021.8    0.0   0.0   0.0   0.0   10000 
Mon 13:00    E 24/ 35  21.4 12.0  1021.5    0.0   0.0   0.0   0.0   10000 

ROSSLYN BAY NTC AWS

Site: 033208
Alt: 0.0m
37km NE of ROCKHAMPTON


  Time     Wind        Temp  DP   Baro     Rain since   Rain past  Vis(m), Cloud(base in m), Weather
  local        km/h                         9am  last   hr   10m    
Mon 08:00    S  7/ 13  13.3----  1024.2   ----  ----  ----  ----   ----- 
Mon 08:30    S  9/ 19  14.4----  1024.8   ----  ----  ----  ----   ----- 
Mon 09:00  SSW  7/ 13  15.8----  1024.7   ----  ----  ----  ----   ----- 
Mon 09:30    S  9/ 19  16.4----  1024.5   ----  ----  ----  ----   ----- 
Mon 10:00  SSW 11/ 20  16.7----  1025.0   ----  ----  ----  ----   ----- 
Mon 10:30    S 11/ 22  17.5----  1024.7   ----  ----  ----  ----   ----- 
Mon 11:00    S 11/ 24  17.4----  1024.8   ----  ----  ----  ----   ----- 
Mon 11:30    S 15/ 24  17.5----  1024.3   ----  ----  ----  ----   ----- 
Mon 12:00    S 11/ 22  17.6----  1023.7   ----  ----  ----  ----   ----- 
Mon 12:30    S  9/ 19  17.7----  1023.4   ----  ----  ----  ----   ----- 
Mon 13:00    S  9/ 15  18.4----  1023.3   ----  ----  ----  ----   ----- 

SAMUEL HILL AERO

Site: 033308
Alt: 31.0m
71km NNE of ROCKHAMPTON


  Time     Wind        Temp  DP   Baro     Rain since   Rain past  Vis(m), Cloud(base in m), Weather
  local        km/h                         9am  last   hr   10m    
Mon 08:00   SW  6/  7   9.7  8.3  1024.4    0.0   0.0   0.0   0.0   10000 
Mon 08:30  SSW  6/  9  12.5  8.2  1024.8    0.2   0.2   0.2   0.0   10000 
Mon 09:00  SSE  7/ 11  14.5  8.9  1024.6    0.2   0.0   0.2   0.0   10000 
Mon 09:30    S 11/ 15  15.3  8.5  1024.4    0.0   0.0   0.0   0.0   10000 
Mon 10:00    S 11/ 17  17.6  9.5  1024.6    0.0   0.0   0.0   0.0   10000 
Mon 10:30  SSE 17/ 26  18.3  9.4  1024.6    0.0   0.0   0.0   0.0   10000 
Mon 11:00    S 17/ 26  18.5  9.6  1024.6    0.0   0.0   0.0   0.0   10000 
Mon 11:30  SSE 19/ 26  19.2  9.9  1024.1    0.0   0.0   0.0   0.0   10000 
Mon 12:00   SE 20/ 32  19.5 10.0  1023.4    0.0   0.0   0.0   0.0   10000 
Mon 12:30   SE 19/ 28  19.9  9.8  1023.3    0.0   0.0   0.0   0.0   10000 
Mon 13:00    S 17/ 24  19.9 10.3  1023.1    0.0   0.0   0.0   0.0   10000 

ST LAWRENCE

Site: 033210
Alt: 9.2m
138km SSE of MACKAY


  Time     Wind        Temp  DP   Baro     Rain since   Rain past  Vis(m), Cloud(base in m), Weather
  local        km/h                         9am  last   hr   10m    
Mon 08:00  SSE 15/ 20  12.3  3.5  1024.3    0.0   0.0   0.0   0.0   ----- 
Mon 08:30  SSE 17/ 28  13.4  3.8  1024.6    0.0   0.0   0.0   0.0   ----- 
Mon 09:00  SSE 19/ 28  14.9  4.3  1025.0    0.0   0.0   0.0   0.0   ----- 
Mon 09:30    S 17/ 28  16.1  4.2  1025.1    0.0   0.0   0.0   0.0   ----- 
Mon 10:00  SSE 13/ 20  17.8  5.1  1024.6    0.0   0.0   0.0   0.0   ----- 
Mon 10:30  SSE 11/ 22  18.6  4.0  1024.6    0.0   0.0   0.0   0.0   ----- 
Mon 11:00  SSE 11/ 17  20.0  3.3  1024.6    0.0   0.0   0.0   0.0   ----- 
Mon 11:30  SSE  9/ 13  20.2  4.3  1024.1    0.0   0.0   0.0   0.0   ----- 
Mon 12:00   SE  9/ 13  19.9  3.2  1023.5    0.0   0.0   0.0   0.0   ----- 
Mon 12:30  ESE  7/ 11  20.6  3.8  1023.4    0.0   0.0   0.0   0.0   ----- 
Mon 13:00   SE  6/ 17  22.0  5.4  1022.6    0.0   0.0   0.0   0.0   ----- 

TOWNSVILLE-FANNING RIVER (DEFENCE)

Site: 033328
Alt: 329.0m
67km NNE of TOWNSVILLE


  Time     Wind        Temp  DP   Baro     Rain since   Rain past  Vis(m), Cloud(base in m), Weather
  local        km/h                         9am  last   hr   10m    
Mon 08:00    E  2/  4  11.5  4.0  1023.3    0.0   0.0   0.0   0.0   ----- 
Mon 08:30  ENE  2/  6  13.8  3.9  1023.8    0.0   0.0   0.0   0.0   ----- 
Mon 09:00  ENE  4/  6  15.2  2.4  1024.0    0.0   0.0   0.0   0.0   ----- 
Mon 09:30    E  7/ 13  16.6  3.0  1024.1    0.0   0.0   0.0   0.0   ----- 
Mon 10:00    E 11/ 20  17.9  1.4  1024.0    0.0   0.0   0.0   0.0   ----- 
Mon 10:30  ENE 13/ 24  18.7  0.8  1023.7    0.0   0.0   0.0   0.0   ----- 
Mon 11:00    E 11/ 28  19.1  3.7  1023.5    0.0   0.0   0.0   0.0   ----- 
Mon 11:30    E  9/ 19  20.0  1.0  1023.2    0.0   0.0   0.0   0.0   ----- 
Mon 12:00  ESE 11/ 17  20.6  2.4  1022.7    0.0   0.0   0.0   0.0   ----- 
Mon 12:30    E  9/ 15  21.0  2.3  1022.3    0.0   0.0   0.0   0.0   ----- 
Mon 13:00  ESE 11/ 19  21.9  4.0  1021.8    0.0   0.0   0.0   0.0   ----- 

WILLIAMSON

Site: 033195
Alt: 27.6m
105km NNW of ROCKHAMPTON


  Time     Wind        Temp  DP   Baro     Rain since   Rain past  Vis(m), Cloud(base in m), Weather
  local        km/h                         9am  last   hr   10m    
Mon 08:00    S 13/ 17  14.4  2.3  1024.5    0.0   0.0   0.0   0.0   ----- 
Mon 08:30    S 17/ 28  15.5  2.0  1024.6    0.0   0.0   0.0   0.0   ----- 
Mon 09:00    S 13/ 19  15.3  2.8  1024.6    0.0   0.0   0.0   0.0   ----- 
Mon 09:30  SSW 15/ 20  16.6  3.0  1024.8    0.0   0.0   0.0   0.0   ----- 
Mon 10:00  SSW 13/ 20  18.8  3.4  1024.9    0.0   0.0   0.0   0.0   ----- 
Mon 10:30    S 13/ 19  20.1  3.8  1024.5    0.0   0.0   0.0   0.0   ----- 
Mon 11:00    S 15/ 20  20.8  3.5  1024.0    0.0   0.0   0.0   0.0   ----- 
Mon 11:30  SSE 13/ 19  21.3  4.4  1023.4    0.0   0.0   0.0   0.0   ----- 
Mon 12:00   SW 11/ 19  22.1  5.5  1023.3    0.0   0.0   0.0   0.0   ----- 
Mon 12:30  ENE 11/ 22  23.2  8.9  1022.8    0.0   0.0   0.0   0.0   ----- 
Mon 13:00    E  9/ 19  23.2  9.2  1022.4    0.0   0.0   0.0   0.0   ----- 

WOOLSHED

Site: 033307
Alt: 556.0m
34km WSW of TOWNSVILLE


  Time     Wind        Temp  DP   Baro     Rain since   Rain past  Vis(m), Cloud(base in m), Weather
  local        km/h                         9am  last   hr   10m    
Mon 08:00    C  0/  0   8.2  8.2  1023.2   ----  ----  ----   0.0   ----- 
Mon 08:30  SSE  2/  4  11.9  9.1  1023.6   ----  ----  ----   0.0   ----- 
Mon 09:00   SE  6/ 11  14.4  4.1  1023.9   ----  ----  ----   0.0   ----- 
Mon 09:30    E  6/ 13  15.1  4.2  1024.1    0.0  ----  ----   0.0   ----- 
Mon 10:00   SE  6/  9  15.9  3.0  1024.1    0.0   0.0  ----   0.0   ----- 
Mon 10:30  ESE  6/ 11  16.3  1.2  1023.9    0.0   0.0   0.0   0.0   ----- 
Mon 11:00    E  6/  9  18.1  5.0  1023.6    0.0   0.0   0.0   0.0   ----- 
Mon 11:30    E  6/ 11  18.0  7.4  1023.3    0.0   0.0   0.0   0.0   ----- 
Mon 12:00    E  6/ 15  18.2  7.0  1023.0    0.0   0.0   0.0   0.0   ----- 
Mon 12:30    E  6/  9  19.1  6.6  1022.6    0.0   0.0   0.0   0.0   ----- 
Mon 13:00  ESE  2/  7  19.7  6.4  1022.2    0.0   0.0   0.0   0.0   ----- 

YEPPOON THE ESPLANADE

Site: 033294
Alt: 5.5m
36km NE of ROCKHAMPTON


  Time     Wind        Temp  DP   Baro     Rain since   Rain past  Vis(m), Cloud(base in m), Weather
  local        km/h                         9am  last   hr   10m    
Mon 08:00  WNW  9/ 11  12.6  5.5  1024.6    0.0   0.0   0.0   0.0   ----- 
Mon 08:30  WNW 11/ 15  14.1  6.7  1025.1    0.0   0.0   0.0   0.0   ----- 
Mon 09:00  WNW  7/ 13  16.2  5.8  1025.0    0.0   0.0   0.0   0.0   ----- 
Mon 09:30   SE 13/ 19  17.3  6.5  1025.0    0.0   0.0   0.0   0.0   ----- 
Mon 10:00    S 13/ 17  17.7  7.7  1025.4    0.0   0.0   0.0   0.0   ----- 
Mon 10:30    S 15/ 20  18.2  7.3  1025.1    0.0   0.0   0.0   0.0   ----- 
Mon 11:00   SE 17/ 22  18.5  7.3  1025.1    0.0   0.0   0.0   0.0   ----- 
Mon 11:30   SE 17/ 24  19.1  7.8  1024.6    0.0   0.0   0.0   0.0   ----- 
Mon 12:00  ESE 15/ 24  19.4  7.2  1023.8    0.0   0.0   0.0   0.0   ----- 
Mon 12:30  ESE 15/ 22  19.4  8.7  1023.6    0.0   0.0   0.0   0.0   ----- 
Mon 13:00    E 13/ 19  19.7  9.0  1023.5    0.0   0.0   0.0   0.0   -----